| Date | Time | Temp. (oF) | Dew Point (oF) | Rel. Hum. (%) | Press. (in.) | Wind Dir. | Wind Speed (mph) | Hourly Rainfall (in.) |
|
|---|---|---|---|---|---|---|---|---|---|
| 1 | 03/04 | 00:00 | 37 | 28 | 72 | 29.69 | NNW | 10 | 0.00 |
| 2 | 03/03 | 23:00 | 36 | 32 | 86 | 29.69 | NNW | 9 | 0.00 |
| 3 | 03/03 | 22:00 | 37 | 33 | 87 | 29.68 | NNW | 7 | 0.00 |
| 4 | 03/03 | 21:00 | 38 | 32 | 82 | 29.68 | NNW | 11 | 0.00 |
| 5 | 03/03 | 20:00 | 39 | 32 | 77 | 29.67 | NNW | 8 | 0.00 |
| 6 | miss | miss | miss | miss | miss | miss | miss | miss | |
| 7 | 03/03 | 19:43 | 39 | 32 | 77 | 29.67 | NW | 8 | 0.00 |
| 8 | miss | miss | miss | miss | miss | miss | miss | miss | |
| 9 | 03/03 | 19:41 | 39 | 32 | 77 | 29.67 | N | 8 | 0.00 |
| 10 | miss | miss | miss | miss | miss | miss | miss | miss | |
| 11 | 03/03 | 19:39 | 39 | 32 | 77 | 29.67 | NNW | 9 | 0.00 |
| 12 | miss | miss | miss | miss | miss | miss | miss | miss | |
| 13 | 03/03 | 19:37 | 39 | 32 | 77 | 29.67 | NW | 5 | 0.00 |
| 14 | miss | miss | miss | miss | miss | miss | miss | miss | |
| 15 | 03/03 | 19:35 | 39 | 32 | 77 | 29.67 | NNW | 8 | 0.00 |
| 16 | miss | miss | miss | miss | miss | miss | miss | miss | |
| 17 | 03/03 | 19:33 | 39 | 32 | 77 | 29.66 | NNW | 8 | 0.00 |
| 18 | miss | miss | miss | miss | miss | miss | miss | miss | |
| 19 | 03/03 | 19:31 | 39 | 32 | 77 | 29.66 | NNE | 5 | 0.00 |
| 20 | miss | miss | miss | miss | miss | miss | miss | miss | |
| 21 | 03/03 | 19:29 | 39 | 32 | 77 | 29.66 | NW | 7 | 0.00 |
| 22 | miss | miss | miss | miss | miss | miss | miss | miss | |
| 23 | 03/03 | 19:27 | 39 | 32 | 77 | 29.66 | NNW | 6 | 0.00 |
| 24 | miss | miss | miss | miss | miss | miss | miss | miss | |
| 25 | 03/03 | 19:25 | 39 | 32 | 77 | 29.66 | NNW | 6 | 0.00 |
| 26 | miss | miss | miss | miss | miss | miss | miss | miss | |
| 27 | 03/03 | 19:25 | 39 | 32 | 77 | 29.66 | NNW | 6 | 0.00 |
| 28 | miss | miss | miss | miss | miss | miss | miss | miss | |
| 29 | 03/03 | 19:25 | 39 | 32 | 77 | 29.66 | NNW | 6 | 0.00 |
| 30 | 03/03 | 19:00 | 39 | 32 | 78 | 29.66 | NNW | 7 | 0.00 |
| 31 | 03/03 | 18:00 | 40 | 33 | 78 | 29.63 | NNW | 4 | 0.00 |
| 32 | 03/03 | 17:00 | 40 | 33 | 78 | 29.61 | NNW | 4 | 0.00 |
| 33 | 03/03 | 16:00 | 40 | 34 | 79 | 29.60 | NW | 9 | 0.00 |
| 34 | 03/03 | 15:00 | 41 | 34 | 78 | 29.59 | NNE | 9 | 0.00 |
| 35 | 03/03 | 14:00 | 40 | 34 | 81 | 29.59 | N | 7 | 0.00 |
| 36 | 03/03 | 13:00 | 41 | 33 | 75 | 29.59 | N | 8 | 0.00 |
| 37 | 03/03 | 12:00 | 39 | 31 | 75 | 29.62 | NE | 11 | 0.00 |
| 38 | 03/03 | 11:00 | 39 | 33 | 79 | 29.62 | NE | 8 | 0.00 |
| 39 | 03/03 | 10:00 | 38 | 32 | 82 | 29.62 | NNE | 10 | 0.00 |
| 40 | 03/03 | 09:00 | 38 | 33 | 85 | 29.62 | N | 7 | 0.00 |
| 41 | 03/03 | 08:00 | 37 | 33 | 87 | 29.62 | N | 8 | 0.00 |
| 42 | 03/03 | 07:00 | 36 | 33 | 92 | 29.62 | NE | 13 | 0.00 |
| 43 | 03/03 | 06:00 | 35 | 33 | 96 | 29.63 | N | 12 | 0.00 |
| 44 | 03/03 | 05:00 | 35 | 33 | 96 | 29.64 | NNE | 7 | 0.00 |
| 45 | 03/03 | 04:00 | 36 | 34 | 94 | 29.64 | NNE | 5 | 0.00 |
| 46 | 03/03 | 03:00 | 35 | 33 | 96 | 29.66 | ENE | 6 | 0.00 |
| 47 | 03/03 | 02:00 | 35 | 34 | 97 | 29.68 | NNE | 7 | 0.00 |
| 48 | 03/03 | 01:00 | 36 | 35 | 97 | 29.69 | NE | 7 | 0.00 |
| 49 | 03/03 | 00:00 | 36 | 34 | 96 | 29.70 | ENE | 8 | 0.00 |
| 50 | 03/02 | 23:00 | 37 | 35 | 94 | 29.71 | NNE | 8 | 0.00 |
| 51 | 03/02 | 22:00 | 37 | 34 | 91 | 29.74 | NE | 3 | 0.00 |
| 52 | 03/02 | 21:00 | 37 | 34 | 92 | 29.75 | NE | 2 | 0.00 |
| 53 | 03/02 | 20:00 | 37 | 35 | 93 | 29.76 | NNE | 0 | 0.00 |
| 54 | 03/02 | 19:00 | 37 | 34 | 91 | 29.79 | NNE | 1 | 0.00 |
| 55 | 03/02 | 18:00 | 37 | 33 | 87 | 29.81 | NE | 2 | 0.00 |
| 56 | 03/02 | 17:00 | 39 | 33 | 80 | 29.82 | NE | 1 | 0.00 |
| 57 | 03/02 | 16:00 | 42 | 31 | 66 | 29.81 | SE | 1 | 0.00 |
| 58 | 03/02 | 15:00 | 42 | 31 | 66 | 29.82 | SE | 0 | 0.00 |
| 59 | 03/02 | 14:00 | 42 | 30 | 64 | 29.83 | ESE | 3 | 0.00 |
| 60 | 03/02 | 13:00 | 43 | 31 | 64 | 29.87 | ESE | 3 | 0.00 |
| 61 | 03/02 | 12:00 | 42 | 31 | 65 | 29.89 | NNE | 3 | 0.00 |
| 62 | 03/02 | 11:00 | 41 | 31 | 68 | 29.90 | NNE | 4 | 0.00 |
| 63 | 03/02 | 10:00 | 39 | 30 | 70 | 29.92 | ENE | 7 | 0.00 |
| 64 | 03/02 | 09:00 | 38 | 30 | 74 | 29.94 | NNW | 3 | 0.00 |
| 65 | 03/02 | 08:00 | 33 | 29 | 86 | 29.96 | NNW | 1 | 0.00 |
| 66 | 03/02 | 07:00 | 31 | 27 | 87 | 29.93 | N | 3 | 0.00 |
| 67 | 03/02 | 06:00 | 33 | 28 | 82 | 29.92 | N | 2 | 0.00 |
| 68 | 03/02 | 05:00 | 34 | 28 | 79 | 29.93 | NNW | 2 | 0.00 |
| 69 | 03/02 | 04:00 | 35 | 28 | 78 | 29.92 | N | 3 | 0.00 |
| 70 | 03/02 | 03:00 | 33 | 27 | 81 | 29.93 | NNW | 1 | 0.00 |
| 71 | 03/02 | 02:00 | 34 | 28 | 80 | 29.95 | NW | 1 | 0.00 |
| 72 | 03/02 | 01:00 | 34 | 27 | 77 | 29.93 | N | 2 | 0.00 |
| 73 | 03/02 | 00:00 | 35 | 27 | 75 | 29.94 | NW | 2 | 0.00 |